sensor_id;sensor_type;location;lat;lon;timestamp;P1;durP1;ratioP1;P2;durP2;ratioP2
52918;SDS011;38793;52.690;6.812;2023-11-21T00:00:20;52.43;;;25.73;;
52918;SDS011;38793;52.690;6.812;2023-11-21T00:02:46;41.70;;;24.15;;
52918;SDS011;38793;52.690;6.812;2023-11-21T00:05:12;46.97;;;24.98;;
52918;SDS011;38793;52.690;6.812;2023-11-21T00:07:42;50.30;;;24.20;;
52918;SDS011;38793;52.690;6.812;2023-11-21T00:12:35;49.60;;;24.80;;
52918;SDS011;38793;52.690;6.812;2023-11-21T00:15:01;45.33;;;23.27;;
52918;SDS011;38793;52.690;6.812;2023-11-21T00:17:27;54.00;;;26.50;;
52918;SDS011;38793;52.690;6.812;2023-11-21T00:19:53;48.78;;;25.10;;
52918;SDS011;38793;52.690;6.812;2023-11-21T00:22:18;51.25;;;24.30;;
52918;SDS011;38793;52.690;6.812;2023-11-21T00:24:44;38.40;;;23.23;;
52918;SDS011;38793;52.690;6.812;2023-11-21T00:27:10;51.33;;;24.92;;
52918;SDS011;38793;52.690;6.812;2023-11-21T00:29:36;42.45;;;23.35;;
52918;SDS011;38793;52.690;6.812;2023-11-21T00:32:03;46.72;;;23.98;;
52918;SDS011;38793;52.690;6.812;2023-11-21T00:34:30;43.72;;;25.05;;
52918;SDS011;38793;52.690;6.812;2023-11-21T00:36:56;47.70;;;23.55;;
52918;SDS011;38793;52.690;6.812;2023-11-21T00:39:22;46.67;;;24.58;;
52918;SDS011;38793;52.690;6.812;2023-11-21T00:41:48;56.43;;;26.47;;
52918;SDS011;38793;52.690;6.812;2023-11-21T00:44:13;63.43;;;29.73;;
52918;SDS011;38793;52.690;6.812;2023-11-21T00:46:39;69.60;;;26.50;;
52918;SDS011;38793;52.690;6.812;2023-11-21T00:49:04;52.27;;;24.57;;
52918;SDS011;38793;52.690;6.812;2023-11-21T00:51:30;53.30;;;25.57;;
52918;SDS011;38793;52.690;6.812;2023-11-21T00:53:56;58.47;;;26.00;;
52918;SDS011;38793;52.690;6.812;2023-11-21T00:56:23;59.33;;;27.40;;
52918;SDS011;38793;52.690;6.812;2023-11-21T00:58:49;51.55;;;26.48;;
52918;SDS011;38793;52.690;6.812;2023-11-21T01:01:17;53.85;;;26.48;;
52918;SDS011;38793;52.690;6.812;2023-11-21T01:08:36;50.53;;;23.77;;
52918;SDS011;38793;52.690;6.812;2023-11-21T01:11:02;54.72;;;25.27;;
52918;SDS011;38793;52.690;6.812;2023-11-21T01:13:28;54.63;;;25.75;;
52918;SDS011;38793;52.690;6.812;2023-11-21T01:15:54;54.97;;;27.45;;
52918;SDS011;38793;52.690;6.812;2023-11-21T01:20:46;49.90;;;24.25;;
52918;SDS011;38793;52.690;6.812;2023-11-21T01:23:12;56.43;;;26.23;;
52918;SDS011;38793;52.690;6.812;2023-11-21T01:25:38;59.50;;;26.83;;
52918;SDS011;38793;52.690;6.812;2023-11-21T01:28:04;55.15;;;26.08;;
52918;SDS011;38793;52.690;6.812;2023-11-21T01:30:30;55.67;;;26.80;;
52918;SDS011;38793;52.690;6.812;2023-11-21T01:32:57;57.80;;;25.38;;
52918;SDS011;38793;52.690;6.812;2023-11-21T01:35:23;59.78;;;25.80;;
52918;SDS011;38793;52.690;6.812;2023-11-21T01:37:48;57.40;;;25.00;;
52918;SDS011;38793;52.690;6.812;2023-11-21T01:40:14;57.03;;;26.40;;
52918;SDS011;38793;52.690;6.812;2023-11-21T01:42:40;46.47;;;23.13;;
52918;SDS011;38793;52.690;6.812;2023-11-21T01:45:08;47.60;;;24.05;;
52918;SDS011;38793;52.690;6.812;2023-11-21T01:50:01;58.80;;;25.15;;
52918;SDS011;38793;52.690;6.812;2023-11-21T01:52:29;51.80;;;25.35;;
52918;SDS011;38793;52.690;6.812;2023-11-21T01:54:55;54.58;;;27.23;;
52918;SDS011;38793;52.690;6.812;2023-11-21T01:57:21;53.55;;;25.50;;
52918;SDS011;38793;52.690;6.812;2023-11-21T01:59:47;51.15;;;24.38;;
52918;SDS011;38793;52.690;6.812;2023-11-21T02:02:15;44.03;;;23.63;;
52918;SDS011;38793;52.690;6.812;2023-11-21T02:04:40;52.92;;;26.77;;
52918;SDS011;38793;52.690;6.812;2023-11-21T02:07:06;51.60;;;24.90;;
52918;SDS011;38793;52.690;6.812;2023-11-21T02:09:32;51.77;;;24.23;;
52918;SDS011;38793;52.690;6.812;2023-11-21T02:12:03;50.20;;;23.75;;
52918;SDS011;38793;52.690;6.812;2023-11-21T02:14:29;49.83;;;24.67;;
52918;SDS011;38793;52.690;6.812;2023-11-21T02:16:56;47.35;;;23.73;;
52918;SDS011;38793;52.690;6.812;2023-11-21T02:19:22;46.00;;;22.80;;
52918;SDS011;38793;52.690;6.812;2023-11-21T02:21:50;56.25;;;24.48;;
52918;SDS011;38793;52.690;6.812;2023-11-21T02:24:20;46.90;;;23.58;;
52918;SDS011;38793;52.690;6.812;2023-11-21T02:26:47;47.75;;;24.17;;
52918;SDS011;38793;52.690;6.812;2023-11-21T02:29:14;51.42;;;24.60;;
52918;SDS011;38793;52.690;6.812;2023-11-21T02:31:43;47.60;;;24.90;;
52918;SDS011;38793;52.690;6.812;2023-11-21T02:34:15;46.97;;;23.38;;
52918;SDS011;38793;52.690;6.812;2023-11-21T02:36:42;54.60;;;25.10;;
52918;SDS011;38793;52.690;6.812;2023-11-21T02:41:33;44.88;;;24.73;;
52918;SDS011;38793;52.690;6.812;2023-11-21T02:43:59;51.25;;;24.13;;
52918;SDS011;38793;52.690;6.812;2023-11-21T02:46:25;48.78;;;23.58;;
52918;SDS011;38793;52.690;6.812;2023-11-21T02:48:51;44.00;;;23.88;;
52918;SDS011;38793;52.690;6.812;2023-11-21T02:51:19;45.95;;;23.35;;
52918;SDS011;38793;52.690;6.812;2023-11-21T02:53:44;42.28;;;22.25;;
52918;SDS011;38793;52.690;6.812;2023-11-21T02:56:11;53.40;;;24.38;;
52918;SDS011;38793;52.690;6.812;2023-11-21T02:58:37;52.63;;;25.45;;
52918;SDS011;38793;52.690;6.812;2023-11-21T03:01:06;62.08;;;26.60;;
52918;SDS011;38793;52.690;6.812;2023-11-21T03:03:32;57.60;;;27.27;;
52918;SDS011;38793;52.690;6.812;2023-11-21T03:05:58;51.50;;;24.70;;
52918;SDS011;38793;52.690;6.812;2023-11-21T03:08:23;48.87;;;25.13;;
52918;SDS011;38793;52.690;6.812;2023-11-21T03:10:49;58.90;;;24.92;;
52918;SDS011;38793;52.690;6.812;2023-11-21T03:13:14;57.63;;;24.47;;
52918;SDS011;38793;52.690;6.812;2023-11-21T03:15:40;49.23;;;24.67;;
52918;SDS011;38793;52.690;6.812;2023-11-21T03:18:07;48.70;;;22.60;;
52918;SDS011;38793;52.690;6.812;2023-11-21T03:20:33;50.75;;;24.13;;
52918;SDS011;38793;52.690;6.812;2023-11-21T03:25:25;49.05;;;22.92;;
52918;SDS011;38793;52.690;6.812;2023-11-21T03:27:51;47.67;;;23.30;;
52918;SDS011;38793;52.690;6.812;2023-11-21T03:30:16;46.78;;;24.13;;
52918;SDS011;38793;52.690;6.812;2023-11-21T03:32:42;62.90;;;26.60;;
52918;SDS011;38793;52.690;6.812;2023-11-21T03:35:08;54.30;;;23.90;;
52918;SDS011;38793;52.690;6.812;2023-11-21T03:37:33;55.83;;;25.77;;
52918;SDS011;38793;52.690;6.812;2023-11-21T03:39:59;57.60;;;26.20;;
52918;SDS011;38793;52.690;6.812;2023-11-21T03:42:25;56.83;;;26.13;;
52918;SDS011;38793;52.690;6.812;2023-11-21T03:47:17;57.30;;;26.17;;
52918;SDS011;38793;52.690;6.812;2023-11-21T03:49:44;52.97;;;25.55;;
52918;SDS011;38793;52.690;6.812;2023-11-21T03:52:10;52.58;;;26.25;;
52918;SDS011;38793;52.690;6.812;2023-11-21T03:54:36;49.97;;;24.45;;
52918;SDS011;38793;52.690;6.812;2023-11-21T03:57:02;59.58;;;25.73;;
52918;SDS011;38793;52.690;6.812;2023-11-21T03:59:28;54.97;;;26.17;;
52918;SDS011;38793;52.690;6.812;2023-11-21T04:01:57;58.93;;;27.10;;
52918;SDS011;38793;52.690;6.812;2023-11-21T04:04:22;57.13;;;25.90;;
52918;SDS011;38793;52.690;6.812;2023-11-21T04:06:48;52.05;;;27.02;;
52918;SDS011;38793;52.690;6.812;2023-11-21T04:09:14;64.03;;;26.30;;
52918;SDS011;38793;52.690;6.812;2023-11-21T04:11:39;55.70;;;27.73;;
52918;SDS011;38793;52.690;6.812;2023-11-21T04:14:05;55.83;;;26.73;;
52918;SDS011;38793;52.690;6.812;2023-11-21T04:16:31;54.38;;;26.23;;
52918;SDS011;38793;52.690;6.812;2023-11-21T04:18:56;55.63;;;27.30;;
52918;SDS011;38793;52.690;6.812;2023-11-21T04:21:22;61.47;;;28.23;;
52918;SDS011;38793;52.690;6.812;2023-11-21T04:23:49;51.42;;;26.75;;
52918;SDS011;38793;52.690;6.812;2023-11-21T04:26:14;59.27;;;28.43;;
52918;SDS011;38793;52.690;6.812;2023-11-21T04:28:40;65.53;;;28.38;;
52918;SDS011;38793;52.690;6.812;2023-11-21T04:31:05;59.30;;;29.83;;
52918;SDS011;38793;52.690;6.812;2023-11-21T04:33:32;62.08;;;28.13;;
52918;SDS011;38793;52.690;6.812;2023-11-21T04:35:57;58.33;;;27.88;;
52918;SDS011;38793;52.690;6.812;2023-11-21T04:38:23;56.83;;;27.13;;
52918;SDS011;38793;52.690;6.812;2023-11-21T04:40:49;64.17;;;29.00;;
52918;SDS011;38793;52.690;6.812;2023-11-21T04:43:14;56.77;;;27.60;;
52918;SDS011;38793;52.690;6.812;2023-11-21T04:45:40;49.22;;;26.20;;
52918;SDS011;38793;52.690;6.812;2023-11-21T04:48:06;54.90;;;25.70;;
52918;SDS011;38793;52.690;6.812;2023-11-21T04:50:33;49.88;;;27.25;;
52918;SDS011;38793;52.690;6.812;2023-11-21T04:52:59;53.08;;;26.50;;
52918;SDS011;38793;52.690;6.812;2023-11-21T04:55:25;53.20;;;26.33;;
52918;SDS011;38793;52.690;6.812;2023-11-21T04:57:53;64.55;;;29.77;;
52918;SDS011;38793;52.690;6.812;2023-11-21T05:00:19;54.13;;;26.45;;
52918;SDS011;38793;52.690;6.812;2023-11-21T05:02:46;51.00;;;27.10;;
52918;SDS011;38793;52.690;6.812;2023-11-21T05:05:11;51.43;;;26.60;;
52918;SDS011;38793;52.690;6.812;2023-11-21T05:07:38;54.80;;;26.37;;
52918;SDS011;38793;52.690;6.812;2023-11-21T05:10:07;50.30;;;24.83;;
52918;SDS011;38793;52.690;6.812;2023-11-21T05:12:36;49.63;;;26.58;;
52918;SDS011;38793;52.690;6.812;2023-11-21T05:15:03;49.72;;;24.30;;
52918;SDS011;38793;52.690;6.812;2023-11-21T05:17:33;48.53;;;23.95;;
52918;SDS011;38793;52.690;6.812;2023-11-21T05:19:59;54.55;;;26.60;;
52918;SDS011;38793;52.690;6.812;2023-11-21T05:22:29;46.28;;;25.60;;
52918;SDS011;38793;52.690;6.812;2023-11-21T05:24:55;63.28;;;27.65;;
52918;SDS011;38793;52.690;6.812;2023-11-21T05:27:21;49.05;;;25.38;;
52918;SDS011;38793;52.690;6.812;2023-11-21T05:29:46;49.37;;;24.83;;
52918;SDS011;38793;52.690;6.812;2023-11-21T05:32:12;45.85;;;23.05;;
52918;SDS011;38793;52.690;6.812;2023-11-21T05:34:37;56.37;;;26.47;;
52918;SDS011;38793;52.690;6.812;2023-11-21T05:37:03;45.80;;;23.93;;
52918;SDS011;38793;52.690;6.812;2023-11-21T05:39:30;47.15;;;24.88;;
52918;SDS011;38793;52.690;6.812;2023-11-21T05:44:22;52.80;;;25.75;;
52918;SDS011;38793;52.690;6.812;2023-11-21T05:46:48;50.92;;;24.80;;
52918;SDS011;38793;52.690;6.812;2023-11-21T05:51:41;43.92;;;23.25;;
52918;SDS011;38793;52.690;6.812;2023-11-21T05:54:07;50.13;;;23.98;;
52918;SDS011;38793;52.690;6.812;2023-11-21T05:56:33;64.25;;;26.13;;
52918;SDS011;38793;52.690;6.812;2023-11-21T06:01:25;48.63;;;24.73;;
52918;SDS011;38793;52.690;6.812;2023-11-21T06:03:53;50.80;;;26.05;;
52918;SDS011;38793;52.690;6.812;2023-11-21T06:06:20;45.33;;;22.73;;
52918;SDS011;38793;52.690;6.812;2023-11-21T06:08:48;49.38;;;25.60;;
52918;SDS011;38793;52.690;6.812;2023-11-21T06:13:39;57.90;;;25.98;;
52918;SDS011;38793;52.690;6.812;2023-11-21T06:16:05;53.50;;;25.57;;
52918;SDS011;38793;52.690;6.812;2023-11-21T06:18:31;52.80;;;24.10;;
52918;SDS011;38793;52.690;6.812;2023-11-21T06:20:56;56.70;;;27.23;;
52918;SDS011;38793;52.690;6.812;2023-11-21T06:25:48;55.17;;;25.00;;
52918;SDS011;38793;52.690;6.812;2023-11-21T06:28:14;56.38;;;25.33;;
52918;SDS011;38793;52.690;6.812;2023-11-21T06:30:42;46.60;;;23.23;;
52918;SDS011;38793;52.690;6.812;2023-11-21T06:33:09;55.58;;;25.40;;
52918;SDS011;38793;52.690;6.812;2023-11-21T06:35:35;52.92;;;25.25;;
52918;SDS011;38793;52.690;6.812;2023-11-21T06:38:01;53.47;;;27.63;;
52918;SDS011;38793;52.690;6.812;2023-11-21T06:40:27;52.90;;;26.38;;
52918;SDS011;38793;52.690;6.812;2023-11-21T06:42:53;57.67;;;25.77;;
52918;SDS011;38793;52.690;6.812;2023-11-21T06:45:19;51.45;;;25.95;;
52918;SDS011;38793;52.690;6.812;2023-11-21T06:47:45;51.97;;;26.20;;
52918;SDS011;38793;52.690;6.812;2023-11-21T06:50:11;57.30;;;26.67;;
52918;SDS011;38793;52.690;6.812;2023-11-21T06:52:37;56.97;;;27.45;;
52918;SDS011;38793;52.690;6.812;2023-11-21T06:55:03;56.03;;;27.85;;
52918;SDS011;38793;52.690;6.812;2023-11-21T06:57:29;55.08;;;26.92;;
52918;SDS011;38793;52.690;6.812;2023-11-21T06:59:56;64.00;;;31.13;;
52918;SDS011;38793;52.690;6.812;2023-11-21T07:02:22;58.10;;;28.65;;
52918;SDS011;38793;52.690;6.812;2023-11-21T07:07:14;53.35;;;24.88;;
52918;SDS011;38793;52.690;6.812;2023-11-21T07:09:39;47.37;;;25.37;;
52918;SDS011;38793;52.690;6.812;2023-11-21T07:12:05;60.50;;;29.37;;
52918;SDS011;38793;52.690;6.812;2023-11-21T07:14:35;60.03;;;28.75;;
52918;SDS011;38793;52.690;6.812;2023-11-21T07:17:02;56.40;;;29.30;;
52918;SDS011;38793;52.690;6.812;2023-11-21T07:19:28;64.78;;;29.50;;
52918;SDS011;38793;52.690;6.812;2023-11-21T07:21:54;50.90;;;28.70;;
52918;SDS011;38793;52.690;6.812;2023-11-21T07:26:46;60.67;;;28.65;;
52918;SDS011;38793;52.690;6.812;2023-11-21T07:29:13;51.45;;;27.75;;
52918;SDS011;38793;52.690;6.812;2023-11-21T07:31:38;61.37;;;30.43;;
52918;SDS011;38793;52.690;6.812;2023-11-21T07:34:04;64.22;;;29.05;;
52918;SDS011;38793;52.690;6.812;2023-11-21T07:36:30;65.50;;;29.15;;
52918;SDS011;38793;52.690;6.812;2023-11-21T07:38:56;68.90;;;30.60;;
52918;SDS011;38793;52.690;6.812;2023-11-21T07:41:22;50.27;;;28.00;;
52918;SDS011;38793;52.690;6.812;2023-11-21T07:43:47;58.70;;;29.55;;
52918;SDS011;38793;52.690;6.812;2023-11-21T07:46:13;54.95;;;28.30;;
52918;SDS011;38793;52.690;6.812;2023-11-21T07:48:39;56.17;;;29.20;;
52918;SDS011;38793;52.690;6.812;2023-11-21T07:51:07;54.97;;;28.38;;
52918;SDS011;38793;52.690;6.812;2023-11-21T07:56:03;52.58;;;27.40;;
52918;SDS011;38793;52.690;6.812;2023-11-21T07:58:30;51.35;;;27.02;;
52918;SDS011;38793;52.690;6.812;2023-11-21T08:00:56;50.88;;;26.42;;
52918;SDS011;38793;52.690;6.812;2023-11-21T08:03:22;46.92;;;27.08;;
52918;SDS011;38793;52.690;6.812;2023-11-21T08:05:47;44.87;;;25.37;;
52918;SDS011;38793;52.690;6.812;2023-11-21T08:08:13;46.67;;;24.53;;
52918;SDS011;38793;52.690;6.812;2023-11-21T08:10:38;49.13;;;25.70;;
52918;SDS011;38793;52.690;6.812;2023-11-21T08:13:04;42.13;;;23.55;;
52918;SDS011;38793;52.690;6.812;2023-11-21T08:15:31;35.72;;;21.00;;
52918;SDS011;38793;52.690;6.812;2023-11-21T08:17:57;55.95;;;23.55;;
52918;SDS011;38793;52.690;6.812;2023-11-21T08:20:24;45.97;;;24.10;;
52918;SDS011;38793;52.690;6.812;2023-11-21T08:22:50;47.83;;;24.48;;
52918;SDS011;38793;52.690;6.812;2023-11-21T08:25:16;39.85;;;22.50;;
52918;SDS011;38793;52.690;6.812;2023-11-21T08:27:44;45.13;;;23.13;;
52918;SDS011;38793;52.690;6.812;2023-11-21T08:30:11;37.47;;;22.30;;
52918;SDS011;38793;52.690;6.812;2023-11-21T08:32:37;34.65;;;21.33;;
52918;SDS011;38793;52.690;6.812;2023-11-21T08:35:03;33.43;;;20.60;;
52918;SDS011;38793;52.690;6.812;2023-11-21T08:37:30;33.85;;;21.02;;
52918;SDS011;38793;52.690;6.812;2023-11-21T08:39:58;38.88;;;22.90;;
52918;SDS011;38793;52.690;6.812;2023-11-21T08:42:27;39.80;;;23.38;;
52918;SDS011;38793;52.690;6.812;2023-11-21T08:44:55;40.03;;;23.08;;
52918;SDS011;38793;52.690;6.812;2023-11-21T08:47:23;41.72;;;23.35;;
52918;SDS011;38793;52.690;6.812;2023-11-21T08:49:49;43.72;;;23.10;;
52918;SDS011;38793;52.690;6.812;2023-11-21T08:52:18;42.53;;;24.35;;
52918;SDS011;38793;52.690;6.812;2023-11-21T08:54:45;44.40;;;23.70;;
52918;SDS011;38793;52.690;6.812;2023-11-21T08:57:11;42.47;;;24.57;;
52918;SDS011;38793;52.690;6.812;2023-11-21T08:59:37;44.00;;;23.70;;
52918;SDS011;38793;52.690;6.812;2023-11-21T09:02:02;40.50;;;21.27;;
52918;SDS011;38793;52.690;6.812;2023-11-21T09:04:28;40.20;;;21.40;;
52918;SDS011;38793;52.690;6.812;2023-11-21T09:06:54;43.35;;;21.20;;
52918;SDS011;38793;52.690;6.812;2023-11-21T09:09:19;40.67;;;21.50;;
52918;SDS011;38793;52.690;6.812;2023-11-21T09:11:45;35.10;;;17.77;;
52918;SDS011;38793;52.690;6.812;2023-11-21T09:14:11;41.20;;;19.52;;
52918;SDS011;38793;52.690;6.812;2023-11-21T09:16:40;42.63;;;20.15;;
52918;SDS011;38793;52.690;6.812;2023-11-21T09:19:06;34.28;;;18.15;;
52918;SDS011;38793;52.690;6.812;2023-11-21T09:21:31;34.23;;;17.93;;
52918;SDS011;38793;52.690;6.812;2023-11-21T09:23:58;35.70;;;18.15;;
52918;SDS011;38793;52.690;6.812;2023-11-21T09:26:23;37.73;;;18.10;;
52918;SDS011;38793;52.690;6.812;2023-11-21T09:28:49;32.50;;;17.27;;
52918;SDS011;38793;52.690;6.812;2023-11-21T09:31:15;36.22;;;18.08;;
52918;SDS011;38793;52.690;6.812;2023-11-21T09:33:47;36.53;;;17.42;;
52918;SDS011;38793;52.690;6.812;2023-11-21T09:36:13;43.65;;;21.13;;
52918;SDS011;38793;52.690;6.812;2023-11-21T09:38:42;45.25;;;21.60;;
52918;SDS011;38793;52.690;6.812;2023-11-21T09:41:11;41.92;;;20.58;;
52918;SDS011;38793;52.690;6.812;2023-11-21T09:43:46;42.15;;;18.67;;
52918;SDS011;38793;52.690;6.812;2023-11-21T09:46:17;37.22;;;20.40;;
52918;SDS011;38793;52.690;6.812;2023-11-21T09:48:48;34.67;;;19.20;;
52918;SDS011;38793;52.690;6.812;2023-11-21T09:51:16;55.80;;;22.80;;
52918;SDS011;38793;52.690;6.812;2023-11-21T09:53:48;46.75;;;24.40;;
52918;SDS011;38793;52.690;6.812;2023-11-21T09:56:17;51.58;;;25.40;;
52918;SDS011;38793;52.690;6.812;2023-11-21T09:58:50;53.50;;;27.27;;
52918;SDS011;38793;52.690;6.812;2023-11-21T10:01:16;51.20;;;26.88;;
52918;SDS011;38793;52.690;6.812;2023-11-21T10:03:44;50.05;;;26.80;;
52918;SDS011;38793;52.690;6.812;2023-11-21T10:06:10;50.37;;;26.13;;
52918;SDS011;38793;52.690;6.812;2023-11-21T10:08:39;52.65;;;26.35;;
52918;SDS011;38793;52.690;6.812;2023-11-21T10:11:06;49.15;;;25.50;;
52918;SDS011;38793;52.690;6.812;2023-11-21T10:13:33;47.67;;;27.83;;
52918;SDS011;38793;52.690;6.812;2023-11-21T10:18:28;44.42;;;25.83;;
52918;SDS011;38793;52.690;6.812;2023-11-21T10:20:54;39.13;;;23.63;;
52918;SDS011;38793;52.690;6.812;2023-11-21T10:23:22;42.42;;;24.23;;
52918;SDS011;38793;52.690;6.812;2023-11-21T10:25:48;42.85;;;23.63;;
52918;SDS011;38793;52.690;6.812;2023-11-21T10:28:15;36.42;;;21.45;;
52918;SDS011;38793;52.690;6.812;2023-11-21T10:30:41;29.13;;;19.70;;
52918;SDS011;38793;52.690;6.812;2023-11-21T10:33:07;29.17;;;19.83;;
52918;SDS011;38793;52.690;6.812;2023-11-21T10:35:38;29.75;;;18.92;;
52918;SDS011;38793;52.690;6.812;2023-11-21T10:38:17;35.35;;;20.30;;
52918;SDS011;38793;52.690;6.812;2023-11-21T10:40:43;27.90;;;18.02;;
52918;SDS011;38793;52.690;6.812;2023-11-21T10:43:11;25.77;;;17.60;;
52918;SDS011;38793;52.690;6.812;2023-11-21T10:45:40;30.08;;;18.38;;
52918;SDS011;38793;52.690;6.812;2023-11-21T10:48:12;26.05;;;17.92;;
52918;SDS011;38793;52.690;6.812;2023-11-21T10:50:42;23.60;;;16.55;;
52918;SDS011;38793;52.690;6.812;2023-11-21T10:53:11;29.42;;;18.50;;
52918;SDS011;38793;52.690;6.812;2023-11-21T10:55:38;28.92;;;19.77;;
52918;SDS011;38793;52.690;6.812;2023-11-21T10:58:04;26.90;;;19.65;;
52918;SDS011;38793;52.690;6.812;2023-11-21T11:00:31;33.35;;;19.25;;
52918;SDS011;38793;52.690;6.812;2023-11-21T11:02:58;29.25;;;19.58;;
52918;SDS011;38793;52.690;6.812;2023-11-21T11:05:24;26.05;;;17.80;;
52918;SDS011;38793;52.690;6.812;2023-11-21T11:07:54;27.45;;;18.10;;
52918;SDS011;38793;52.690;6.812;2023-11-21T11:10:26;26.83;;;18.40;;
52918;SDS011;38793;52.690;6.812;2023-11-21T11:12:55;23.90;;;16.65;;
52918;SDS011;38793;52.690;6.812;2023-11-21T11:15:22;23.58;;;17.85;;
52918;SDS011;38793;52.690;6.812;2023-11-21T11:17:49;33.30;;;15.40;;
52918;SDS011;38793;52.690;6.812;2023-11-21T11:20:15;19.23;;;12.38;;
52918;SDS011;38793;52.690;6.812;2023-11-21T11:25:33;16.10;;;12.68;;
52918;SDS011;38793;52.690;6.812;2023-11-21T11:28:15;13.50;;;10.85;;
52918;SDS011;38793;52.690;6.812;2023-11-21T11:33:59;10.63;;;9.15;;
52918;SDS011;38793;52.690;6.812;2023-11-21T11:39:37;8.88;;;7.97;;
52918;SDS011;38793;52.690;6.812;2023-11-21T11:42:04;10.95;;;9.05;;
52918;SDS011;38793;52.690;6.812;2023-11-21T11:49:59;9.98;;;8.05;;
52918;SDS011;38793;52.690;6.812;2023-11-21T11:52:47;9.68;;;8.32;;
52918;SDS011;38793;52.690;6.812;2023-11-21T11:55:17;8.50;;;7.55;;
52918;SDS011;38793;52.690;6.812;2023-11-21T11:57:44;9.88;;;7.70;;
52918;SDS011;38793;52.690;6.812;2023-11-21T12:02:51;9.23;;;8.00;;
52918;SDS011;38793;52.690;6.812;2023-11-21T12:05:19;10.02;;;8.48;;
52918;SDS011;38793;52.690;6.812;2023-11-21T12:10:15;10.80;;;8.35;;
52918;SDS011;38793;52.690;6.812;2023-11-21T12:12:45;9.60;;;7.85;;
52918;SDS011;38793;52.690;6.812;2023-11-21T12:15:15;11.23;;;7.53;;
52918;SDS011;38793;52.690;6.812;2023-11-21T12:20:08;11.18;;;8.40;;
52918;SDS011;38793;52.690;6.812;2023-11-21T12:22:46;10.48;;;8.65;;
52918;SDS011;38793;52.690;6.812;2023-11-21T12:25:17;9.95;;;8.80;;
52918;SDS011;38793;52.690;6.812;2023-11-21T12:27:53;9.48;;;7.60;;
52918;SDS011;38793;52.690;6.812;2023-11-21T12:30:20;11.18;;;7.43;;
52918;SDS011;38793;52.690;6.812;2023-11-21T12:32:53;8.63;;;7.18;;
52918;SDS011;38793;52.690;6.812;2023-11-21T12:35:26;9.52;;;7.43;;
52918;SDS011;38793;52.690;6.812;2023-11-21T12:37:55;8.63;;;7.72;;
52918;SDS011;38793;52.690;6.812;2023-11-21T12:40:24;8.55;;;6.95;;
52918;SDS011;38793;52.690;6.812;2023-11-21T12:45:24;10.50;;;7.95;;
52918;SDS011;38793;52.690;6.812;2023-11-21T12:47:55;9.50;;;8.20;;
52918;SDS011;38793;52.690;6.812;2023-11-21T12:50:28;8.65;;;7.60;;
52918;SDS011;38793;52.690;6.812;2023-11-21T12:53:08;9.32;;;8.02;;
52918;SDS011;38793;52.690;6.812;2023-11-21T12:55:37;9.70;;;7.63;;
52918;SDS011;38793;52.690;6.812;2023-11-21T12:58:04;10.05;;;8.10;;
52918;SDS011;38793;52.690;6.812;2023-11-21T13:00:38;8.68;;;7.13;;
52918;SDS011;38793;52.690;6.812;2023-11-21T13:03:08;9.32;;;7.47;;
52918;SDS011;38793;52.690;6.812;2023-11-21T13:05:37;8.73;;;7.47;;
52918;SDS011;38793;52.690;6.812;2023-11-21T13:08:04;11.50;;;7.78;;
52918;SDS011;38793;52.690;6.812;2023-11-21T13:10:38;7.57;;;6.40;;
52918;SDS011;38793;52.690;6.812;2023-11-21T13:13:05;7.95;;;6.68;;
52918;SDS011;38793;52.690;6.812;2023-11-21T13:15:39;8.70;;;7.28;;
52918;SDS011;38793;52.690;6.812;2023-11-21T13:18:06;7.90;;;6.70;;
52918;SDS011;38793;52.690;6.812;2023-11-21T13:20:32;9.63;;;7.30;;
52918;SDS011;38793;52.690;6.812;2023-11-21T13:22:58;10.48;;;7.43;;
52918;SDS011;38793;52.690;6.812;2023-11-21T13:25:27;7.82;;;6.60;;
52918;SDS011;38793;52.690;6.812;2023-11-21T13:30:20;10.50;;;7.35;;
52918;SDS011;38793;52.690;6.812;2023-11-21T13:32:55;7.30;;;6.47;;
52918;SDS011;38793;52.690;6.812;2023-11-21T13:35:22;9.82;;;7.65;;
52918;SDS011;38793;52.690;6.812;2023-11-21T13:38:02;9.63;;;7.40;;
52918;SDS011;38793;52.690;6.812;2023-11-21T13:40:38;9.73;;;7.55;;
52918;SDS011;38793;52.690;6.812;2023-11-21T13:43:09;8.43;;;7.25;;
52918;SDS011;38793;52.690;6.812;2023-11-21T13:45:36;9.70;;;8.20;;
52918;SDS011;38793;52.690;6.812;2023-11-21T13:48:04;11.80;;;8.60;;
52918;SDS011;38793;52.690;6.812;2023-11-21T13:50:35;9.27;;;7.25;;
52918;SDS011;38793;52.690;6.812;2023-11-21T13:53:09;10.27;;;8.23;;
52918;SDS011;38793;52.690;6.812;2023-11-21T13:55:50;12.02;;;7.63;;
52918;SDS011;38793;52.690;6.812;2023-11-21T13:58:19;8.75;;;7.80;;
52918;SDS011;38793;52.690;6.812;2023-11-21T14:00:49;8.75;;;7.05;;
52918;SDS011;38793;52.690;6.812;2023-11-21T14:03:25;9.20;;;8.20;;
52918;SDS011;38793;52.690;6.812;2023-11-21T14:06:03;8.50;;;7.60;;
52918;SDS011;38793;52.690;6.812;2023-11-21T14:08:34;11.77;;;7.35;;
52918;SDS011;38793;52.690;6.812;2023-11-21T14:10:59;9.55;;;8.25;;
52918;SDS011;38793;52.690;6.812;2023-11-21T14:13:28;9.23;;;7.70;;
52918;SDS011;38793;52.690;6.812;2023-11-21T14:15:53;8.68;;;7.72;;
52918;SDS011;38793;52.690;6.812;2023-11-21T14:18:23;9.50;;;7.97;;
52918;SDS011;38793;52.690;6.812;2023-11-21T14:20:56;9.48;;;7.88;;
52918;SDS011;38793;52.690;6.812;2023-11-21T14:23:21;9.77;;;8.77;;
52918;SDS011;38793;52.690;6.812;2023-11-21T14:25:48;8.13;;;7.30;;
52918;SDS011;38793;52.690;6.812;2023-11-21T14:28:15;10.85;;;7.93;;
52918;SDS011;38793;52.690;6.812;2023-11-21T14:30:41;16.58;;;8.27;;
52918;SDS011;38793;52.690;6.812;2023-11-21T14:33:07;9.00;;;8.05;;
52918;SDS011;38793;52.690;6.812;2023-11-21T14:35:35;9.38;;;7.28;;
52918;SDS011;38793;52.690;6.812;2023-11-21T14:38:01;10.63;;;8.13;;
52918;SDS011;38793;52.690;6.812;2023-11-21T14:40:30;10.48;;;7.55;;
52918;SDS011;38793;52.690;6.812;2023-11-21T14:42:59;8.85;;;7.95;;
52918;SDS011;38793;52.690;6.812;2023-11-21T14:45:25;9.98;;;7.85;;
52918;SDS011;38793;52.690;6.812;2023-11-21T14:47:52;10.48;;;7.68;;
52918;SDS011;38793;52.690;6.812;2023-11-21T14:50:29;10.90;;;7.85;;
52918;SDS011;38793;52.690;6.812;2023-11-21T14:53:14;9.57;;;8.40;;
52918;SDS011;38793;52.690;6.812;2023-11-21T14:55:40;9.38;;;7.63;;
52918;SDS011;38793;52.690;6.812;2023-11-21T14:58:14;9.55;;;7.90;;
52918;SDS011;38793;52.690;6.812;2023-11-21T15:00:47;10.80;;;8.48;;
52918;SDS011;38793;52.690;6.812;2023-11-21T15:03:13;9.75;;;8.75;;
52918;SDS011;38793;52.690;6.812;2023-11-21T15:06:04;8.80;;;7.88;;
52918;SDS011;38793;52.690;6.812;2023-11-21T15:08:58;11.27;;;8.60;;
52918;SDS011;38793;52.690;6.812;2023-11-21T15:11:33;8.57;;;7.50;;
52918;SDS011;38793;52.690;6.812;2023-11-21T15:16:25;9.45;;;8.07;;
52918;SDS011;38793;52.690;6.812;2023-11-21T15:18:52;11.43;;;8.38;;
52918;SDS011;38793;52.690;6.812;2023-11-21T15:21:20;10.50;;;7.25;;
52918;SDS011;38793;52.690;6.812;2023-11-21T15:23:47;9.90;;;7.38;;
52918;SDS011;38793;52.690;6.812;2023-11-21T15:26:13;16.73;;;9.00;;
52918;SDS011;38793;52.690;6.812;2023-11-21T15:28:39;9.70;;;8.32;;
52918;SDS011;38793;52.690;6.812;2023-11-21T15:31:05;13.40;;;9.10;;
52918;SDS011;38793;52.690;6.812;2023-11-21T15:33:32;10.30;;;7.93;;
52918;SDS011;38793;52.690;6.812;2023-11-21T15:35:58;14.02;;;9.40;;
52918;SDS011;38793;52.690;6.812;2023-11-21T15:38:24;12.20;;;7.38;;